createdAt,value
2023-05-18T00:01:12.349Z,23.92
2023-05-18T00:06:14.474Z,18.83
2023-05-18T00:11:16.991Z,23.98
2023-05-18T00:16:19.170Z,24.73
2023-05-18T00:21:22.628Z,22.20
2023-05-18T00:26:24.895Z,20.23
2023-05-18T00:31:27.159Z,22.17
2023-05-18T00:36:29.257Z,27.10
2023-05-18T00:41:31.805Z,24.33
2023-05-18T00:46:36.567Z,20.13
2023-05-18T00:51:39.420Z,20.00
2023-05-18T00:56:42.555Z,26.90
2023-05-18T01:01:46.728Z,22.95
2023-05-18T01:06:48.842Z,18.05
2023-05-18T01:12:19.204Z,21.63
2023-05-18T01:17:34.209Z,22.08
2023-05-18T01:22:42.230Z,20.10
2023-05-18T01:27:46.790Z,19.50
2023-05-18T01:32:50.890Z,23.25
2023-05-18T01:37:52.975Z,22.42
2023-05-18T01:43:03.528Z,25.67
2023-05-18T01:48:07.823Z,20.13
2023-05-18T01:53:14.710Z,22.13
2023-05-18T01:58:18.495Z,27.58
2023-05-18T02:03:21.392Z,23.63
2023-05-18T02:08:23.652Z,25.40
2023-05-18T02:13:26.174Z,22.98
2023-05-18T02:18:28.744Z,15.95
2023-05-18T02:28:33.604Z,26.00
2023-05-18T02:33:41.736Z,31.48
2023-05-18T02:38:44.397Z,26.70
2023-05-18T02:43:47.040Z,25.58
2023-05-18T02:48:49.242Z,28.83
2023-05-18T02:53:52.061Z,34.08
2023-05-18T02:58:58.797Z,34.85
2023-05-18T03:04:11.259Z,29.50
2023-05-18T03:09:20.086Z,33.88
2023-05-18T03:14:22.559Z,35.50
2023-05-18T03:19:24.916Z,29.15
2023-05-18T03:24:30.434Z,25.10
2023-05-18T03:29:34.825Z,23.65
2023-05-18T03:34:39.017Z,24.70
2023-05-18T03:39:41.370Z,31.02
2023-05-18T03:44:44.001Z,29.05
2023-05-18T03:49:46.448Z,28.48
2023-05-18T03:54:49.877Z,25.98
2023-05-18T03:59:51.939Z,25.88
2023-05-18T04:04:54.220Z,26.30
2023-05-18T04:09:56.964Z,28.58
2023-05-18T04:14:59.017Z,23.02
2023-05-18T04:20:05.038Z,26.27
2023-05-18T04:25:08.740Z,24.95
2023-05-18T04:30:12.298Z,22.27
2023-05-18T04:35:17.009Z,27.75
2023-05-18T04:40:19.580Z,24.75
2023-05-18T04:45:26.373Z,19.83
2023-05-18T04:50:30.238Z,18.45
2023-05-18T04:55:33.582Z,19.80
2023-05-18T05:00:41.601Z,20.20
2023-05-18T05:05:43.676Z,17.02
2023-05-18T05:10:45.894Z,11.98
2023-05-18T05:15:48.256Z,20.35
2023-05-18T05:20:51.436Z,16.73
2023-05-18T05:25:53.794Z,20.23
2023-05-18T05:30:56.586Z,10.00
2023-05-18T05:35:58.786Z,14.13
2023-05-18T05:41:01.701Z,8.95
2023-05-18T05:46:04.284Z,6.40
2023-05-18T05:51:06.582Z,7.03
2023-05-18T05:56:08.974Z,8.13
2023-05-18T06:01:14.990Z,6.72
2023-05-18T06:06:17.161Z,6.30
2023-05-18T06:11:19.398Z,7.30
2023-05-18T06:16:21.525Z,7.03
2023-05-18T06:21:23.871Z,4.50
2023-05-18T06:26:26.121Z,7.60
2023-05-18T06:31:45.723Z,5.35
2023-05-18T06:36:54.940Z,7.22
2023-05-18T06:41:57.003Z,7.07
2023-05-18T06:47:02.458Z,6.28
2023-05-18T06:52:06.813Z,9.38
2023-05-18T06:57:09.356Z,3.42
2023-05-18T07:02:11.476Z,2.95
2023-05-18T07:07:16.907Z,5.95
2023-05-18T07:12:18.984Z,4.55
2023-05-18T07:17:21.118Z,4.00
2023-05-18T07:22:23.286Z,6.13
2023-05-18T07:27:25.404Z,6.53
2023-05-18T07:32:27.620Z,3.97
2023-05-18T07:37:29.803Z,3.75
2023-05-18T07:42:34.013Z,5.57
2023-05-18T07:47:36.572Z,3.75
2023-05-18T07:52:38.729Z,4.18
2023-05-18T07:57:40.935Z,2.58
2023-05-18T08:02:44.029Z,5.15
2023-05-18T08:07:46.307Z,3.17
2023-05-18T08:12:48.451Z,2.50
2023-05-18T08:17:52.475Z,5.00
2023-05-18T08:22:54.583Z,6.95
2023-05-18T08:27:56.612Z,3.70
2023-05-18T08:32:58.933Z,3.05
2023-05-18T08:38:02.957Z,4.40
2023-05-18T08:43:10.828Z,5.63
2023-05-18T08:48:15.814Z,5.65
2023-05-18T08:53:20.696Z,4.20
2023-05-18T08:58:30.560Z,3.05
2023-05-18T09:03:33.190Z,2.78
2023-05-18T09:08:35.977Z,4.60
2023-05-18T09:13:38.996Z,2.50
2023-05-18T09:18:41.188Z,3.47
2023-05-18T09:23:44.435Z,6.25
2023-05-18T09:28:49.455Z,7.07
2023-05-18T09:33:52.412Z,6.40
2023-05-18T09:38:54.628Z,6.05
2023-05-18T09:43:56.724Z,3.80
2023-05-18T09:48:59.664Z,6.18
2023-05-18T09:54:05.139Z,4.10
2023-05-18T09:59:15.263Z,3.22
2023-05-18T10:04:20.118Z,5.35
2023-05-18T10:09:22.181Z,3.75
2023-05-18T10:14:28.183Z,6.70
2023-05-18T10:19:35.206Z,4.47
2023-05-18T10:24:45.107Z,3.70
2023-05-18T10:29:47.273Z,3.63
2023-05-18T10:34:51.744Z,6.72
2023-05-18T10:39:56.138Z,5.57
2023-05-18T10:44:58.384Z,5.72
2023-05-18T10:50:01.722Z,6.65
2023-05-18T10:55:08.663Z,5.82
2023-05-18T11:00:11.044Z,4.03
2023-05-18T11:05:13.436Z,7.07
2023-05-18T11:10:15.907Z,2.83
2023-05-18T11:15:19.645Z,3.95
2023-05-18T11:20:25.919Z,6.90
2023-05-18T11:25:27.936Z,3.83
2023-05-18T11:30:45.168Z,5.03
2023-05-18T11:36:14.790Z,6.07
2023-05-18T11:41:36.478Z,2.80
2023-05-18T11:46:51.210Z,3.08
2023-05-18T11:52:14.250Z,3.50
2023-05-18T11:57:18.654Z,3.78
2023-05-18T12:02:22.627Z,4.10
2023-05-18T12:07:25.435Z,4.28
2023-05-18T12:12:28.487Z,3.58
2023-05-18T12:17:47.804Z,3.85
2023-05-18T12:22:53.789Z,3.80
2023-05-18T12:27:57.176Z,4.55
2023-05-18T12:33:01.462Z,4.28
2023-05-18T12:38:03.494Z,2.83
2023-05-18T12:43:05.686Z,4.15
2023-05-18T12:48:09.782Z,3.38
2023-05-18T12:53:11.928Z,2.20
2023-05-18T12:58:17.137Z,7.03
2023-05-18T13:03:22.477Z,3.88
2023-05-18T13:08:25.003Z,2.70
2023-05-18T13:13:28.390Z,2.50
2023-05-18T13:18:30.644Z,2.63
2023-05-18T13:23:32.654Z,3.00
2023-05-18T13:28:35.930Z,3.08
2023-05-18T13:33:37.946Z,5.65
2023-05-18T13:38:40.212Z,4.40
2023-05-18T13:43:42.866Z,5.15
2023-05-18T13:48:45.011Z,3.80
2023-05-18T13:53:47.148Z,4.13
2023-05-18T13:58:50.248Z,4.72
2023-05-18T14:03:52.375Z,4.75
2023-05-18T14:08:54.437Z,6.43
2023-05-18T14:13:56.554Z,7.10
2023-05-18T14:18:58.605Z,8.20
2023-05-18T14:24:03.803Z,4.50
2023-05-18T14:29:05.840Z,7.80
2023-05-18T14:34:07.845Z,8.25
2023-05-18T14:39:09.936Z,4.40
2023-05-18T14:44:13.683Z,6.53
2023-05-18T14:49:15.811Z,7.50
2023-05-18T14:54:19.178Z,12.30
2023-05-18T14:59:21.583Z,8.43
2023-05-18T15:04:25.024Z,9.90
2023-05-18T15:09:27.210Z,14.13
2023-05-18T15:14:29.319Z,7.97
2023-05-18T15:19:31.497Z,9.60
2023-05-18T15:24:33.638Z,10.75
2023-05-18T15:29:35.966Z,9.90
2023-05-18T15:34:38.125Z,14.68
2023-05-18T15:39:40.304Z,14.77
2023-05-18T15:44:42.378Z,11.27
2023-05-18T15:49:44.530Z,13.80
2023-05-18T15:54:46.603Z,10.30
2023-05-18T15:59:49.204Z,8.73
2023-05-18T16:04:51.322Z,8.10
2023-05-18T16:09:53.416Z,5.72
2023-05-18T16:14:55.498Z,8.93
2023-05-18T16:19:57.573Z,8.10
2023-05-18T16:24:59.569Z,7.28
2023-05-18T16:30:01.554Z,12.10
2023-05-18T16:35:04.901Z,10.70
2023-05-18T16:40:08.325Z,8.18
2023-05-18T16:45:10.908Z,7.25
2023-05-18T16:50:13.074Z,9.35
2023-05-18T16:55:15.113Z,6.30
2023-05-18T17:00:18.511Z,7.63
2023-05-18T17:05:21.757Z,7.60
2023-05-18T17:10:23.875Z,6.68
2023-05-18T17:15:26.148Z,8.10
2023-05-18T17:20:28.630Z,7.03
2023-05-18T17:25:30.873Z,9.90
2023-05-18T17:30:33.129Z,12.10
2023-05-18T17:35:35.454Z,12.55
2023-05-18T17:40:37.468Z,9.38
2023-05-18T17:45:39.572Z,10.77
2023-05-18T17:50:42.520Z,15.48
2023-05-18T17:55:44.754Z,6.63
2023-05-18T18:00:46.864Z,10.82
2023-05-18T18:05:48.963Z,7.05
2023-05-18T18:10:52.849Z,5.25
2023-05-18T18:15:55.159Z,8.13
2023-05-18T18:20:57.423Z,8.15
2023-05-18T18:26:00.334Z,5.18
2023-05-18T18:31:03.230Z,10.60
2023-05-18T18:36:07.518Z,13.15
2023-05-18T18:41:09.865Z,13.35
2023-05-18T18:46:12.302Z,9.40
2023-05-18T18:51:14.607Z,6.28
2023-05-18T18:56:16.763Z,9.05
2023-05-18T19:01:18.869Z,11.82
2023-05-18T19:06:23.166Z,7.55
2023-05-18T19:11:25.452Z,9.25
2023-05-18T19:16:27.599Z,6.80
2023-05-18T19:21:29.806Z,9.02
2023-05-18T19:26:32.656Z,8.15
2023-05-18T19:31:36.047Z,5.95
2023-05-18T19:36:38.177Z,6.47
2023-05-18T19:41:40.228Z,8.80
2023-05-18T19:46:43.281Z,9.32
2023-05-18T19:51:45.473Z,5.90
2023-05-18T19:56:47.619Z,8.57
2023-05-18T20:01:51.209Z,11.25
2023-05-18T20:06:53.386Z,7.07
2023-05-18T20:11:56.343Z,9.85
2023-05-18T20:16:59.873Z,6.68
2023-05-18T20:22:02.044Z,8.93
2023-05-18T20:27:04.221Z,11.27
2023-05-18T20:32:06.842Z,8.93
2023-05-18T20:37:10.961Z,7.53
2023-05-18T20:42:14.906Z,11.02
2023-05-18T20:47:20.608Z,7.53
2023-05-18T20:52:22.975Z,7.13
2023-05-18T20:57:25.195Z,11.20
2023-05-18T21:02:27.343Z,7.32
2023-05-18T21:07:29.564Z,12.45
2023-05-18T21:12:32.089Z,8.75
2023-05-18T21:17:34.358Z,7.40
2023-05-18T21:22:37.259Z,9.30
2023-05-18T21:27:39.341Z,7.35
2023-05-18T21:32:43.670Z,9.90
2023-05-18T21:37:46.039Z,9.68
2023-05-18T21:42:48.273Z,10.32
2023-05-18T21:47:50.952Z,9.48
2023-05-18T21:52:53.029Z,8.30
2023-05-18T21:57:56.158Z,7.70
2023-05-18T22:02:58.908Z,10.27
2023-05-18T22:08:01.216Z,8.05
2023-05-18T22:13:03.483Z,8.90
2023-05-18T22:18:06.135Z,10.57
2023-05-18T22:23:09.315Z,10.00
2023-05-18T22:28:11.557Z,9.90
2023-05-18T22:33:13.728Z,10.32
2023-05-18T22:38:16.979Z,9.68
2023-05-18T22:43:23.543Z,7.32
2023-05-18T22:48:26.338Z,5.93
2023-05-18T22:53:28.483Z,6.22
2023-05-18T22:58:30.605Z,5.20
2023-05-18T23:03:32.701Z,3.85
2023-05-18T23:08:37.030Z,2.97
2023-05-18T23:13:39.133Z,3.80
2023-05-18T23:18:41.332Z,3.53
2023-05-18T23:23:45.605Z,2.47
2023-05-18T23:28:50.595Z,3.60
2023-05-18T23:33:52.970Z,2.53
2023-05-18T23:38:59.041Z,3.53
2023-05-18T23:44:01.662Z,3.88
2023-05-18T23:49:05.056Z,3.47
2023-05-18T23:54:07.599Z,1.73
2023-05-18T23:59:10.524Z,1.13
